CPX716 Details

Departure: General Omar Torrijos International Airport (MPTO)
Arrival: Miami International Airport (KMIA) at N/A
Route: TASNO UL780 URSUS FLIPR6
Notes:


Current Weather Information
MPTO 251100Z 00000KT 9999 SCT018CB SCT090 24/23 Q1009 NOSIG
KMIA 251053Z 00000KT 10SM FEW025 SCT250 27/24 A2991 RMK AO2 SLP129 CB DSNT SW T02670244